sensor_id;sensor_type;location;lat;lon;timestamp;P1;durP1;ratioP1;P2;durP2;ratioP2
45944;SDS011;31655;48.972;10.686;2022-10-31T00:01:16;30.60;;;16.20;;
45944;SDS011;31655;48.972;10.686;2022-10-31T00:03:45;27.20;;;15.07;;
45944;SDS011;31655;48.972;10.686;2022-10-31T00:06:12;31.23;;;16.45;;
45944;SDS011;31655;48.972;10.686;2022-10-31T00:08:38;43.15;;;19.90;;
45944;SDS011;31655;48.972;10.686;2022-10-31T00:11:03;28.23;;;15.07;;
45944;SDS011;31655;48.972;10.686;2022-10-31T00:13:33;27.77;;;14.52;;
45944;SDS011;31655;48.972;10.686;2022-10-31T00:15:58;33.05;;;12.55;;
45944;SDS011;31655;48.972;10.686;2022-10-31T00:18:24;31.20;;;14.75;;
45944;SDS011;31655;48.972;10.686;2022-10-31T00:20:57;35.88;;;16.77;;
45944;SDS011;31655;48.972;10.686;2022-10-31T00:23:24;34.72;;;15.63;;
45944;SDS011;31655;48.972;10.686;2022-10-31T00:25:50;39.53;;;16.80;;
45944;SDS011;31655;48.972;10.686;2022-10-31T00:28:15;34.30;;;16.88;;
45944;SDS011;31655;48.972;10.686;2022-10-31T00:30:41;34.72;;;18.00;;
45944;SDS011;31655;48.972;10.686;2022-10-31T00:33:06;38.90;;;19.80;;
45944;SDS011;31655;48.972;10.686;2022-10-31T00:35:32;44.90;;;20.45;;
45944;SDS011;31655;48.972;10.686;2022-10-31T00:37:58;45.20;;;22.08;;
45944;SDS011;31655;48.972;10.686;2022-10-31T00:40:23;41.30;;;20.35;;
45944;SDS011;31655;48.972;10.686;2022-10-31T00:42:49;40.75;;;21.33;;
45944;SDS011;31655;48.972;10.686;2022-10-31T00:45:14;35.40;;;21.38;;
45944;SDS011;31655;48.972;10.686;2022-10-31T00:47:40;41.22;;;22.50;;
45944;SDS011;31655;48.972;10.686;2022-10-31T00:50:06;41.88;;;21.33;;
45944;SDS011;31655;48.972;10.686;2022-10-31T00:52:32;34.95;;;19.77;;
45944;SDS011;31655;48.972;10.686;2022-10-31T00:54:58;39.28;;;20.30;;
45944;SDS011;31655;48.972;10.686;2022-10-31T00:57:24;32.88;;;18.50;;
45944;SDS011;31655;48.972;10.686;2022-10-31T00:59:50;34.10;;;18.48;;
45944;SDS011;31655;48.972;10.686;2022-10-31T01:02:15;42.22;;;22.27;;
45944;SDS011;31655;48.972;10.686;2022-10-31T01:04:41;39.42;;;21.58;;
45944;SDS011;31655;48.972;10.686;2022-10-31T01:07:06;43.72;;;20.88;;
45944;SDS011;31655;48.972;10.686;2022-10-31T01:09:32;33.95;;;17.52;;
45944;SDS011;31655;48.972;10.686;2022-10-31T01:11:58;30.65;;;16.15;;
45944;SDS011;31655;48.972;10.686;2022-10-31T01:14:23;25.83;;;16.38;;
45944;SDS011;31655;48.972;10.686;2022-10-31T01:16:49;35.15;;;17.75;;
45944;SDS011;31655;48.972;10.686;2022-10-31T01:19:14;30.67;;;16.92;;
45944;SDS011;31655;48.972;10.686;2022-10-31T01:21:40;30.77;;;16.17;;
45944;SDS011;31655;48.972;10.686;2022-10-31T01:24:06;30.25;;;17.30;;
45944;SDS011;31655;48.972;10.686;2022-10-31T01:26:32;37.15;;;17.20;;
45944;SDS011;31655;48.972;10.686;2022-10-31T01:29:03;32.50;;;17.50;;
45944;SDS011;31655;48.972;10.686;2022-10-31T01:31:32;34.13;;;17.70;;
45944;SDS011;31655;48.972;10.686;2022-10-31T01:33:59;32.72;;;19.58;;
45944;SDS011;31655;48.972;10.686;2022-10-31T01:36:26;32.40;;;18.55;;
45944;SDS011;31655;48.972;10.686;2022-10-31T01:38:55;36.72;;;20.02;;
45944;SDS011;31655;48.972;10.686;2022-10-31T01:41:25;36.03;;;21.70;;
45944;SDS011;31655;48.972;10.686;2022-10-31T01:49:18;39.42;;;20.95;;
45944;SDS011;31655;48.972;10.686;2022-10-31T01:51:47;38.83;;;22.15;;
45944;SDS011;31655;48.972;10.686;2022-10-31T01:54:18;41.58;;;20.98;;
45944;SDS011;31655;48.972;10.686;2022-10-31T01:56:50;32.47;;;19.17;;
45944;SDS011;31655;48.972;10.686;2022-10-31T01:59:18;34.38;;;19.95;;
45944;SDS011;31655;48.972;10.686;2022-10-31T02:01:46;31.95;;;17.70;;
45944;SDS011;31655;48.972;10.686;2022-10-31T02:04:14;31.63;;;18.48;;
45944;SDS011;31655;48.972;10.686;2022-10-31T02:07:02;40.35;;;20.25;;
45944;SDS011;31655;48.972;10.686;2022-10-31T02:09:35;44.63;;;20.83;;
45944;SDS011;31655;48.972;10.686;2022-10-31T02:12:02;34.53;;;21.13;;
45944;SDS011;31655;48.972;10.686;2022-10-31T02:14:29;28.88;;;19.52;;
45944;SDS011;31655;48.972;10.686;2022-10-31T02:16:56;38.80;;;20.02;;
45944;SDS011;31655;48.972;10.686;2022-10-31T02:19:38;36.55;;;19.50;;
45944;SDS011;31655;48.972;10.686;2022-10-31T02:22:10;42.95;;;21.20;;
45944;SDS011;31655;48.972;10.686;2022-10-31T02:27:16;40.38;;;19.60;;
45944;SDS011;31655;48.972;10.686;2022-10-31T02:32:38;41.75;;;23.15;;
45944;SDS011;31655;48.972;10.686;2022-10-31T02:43:20;44.67;;;21.67;;
45944;SDS011;31655;48.972;10.686;2022-10-31T02:46:27;38.28;;;21.80;;
45944;SDS011;31655;48.972;10.686;2022-10-31T02:48:54;47.15;;;22.50;;
45944;SDS011;31655;48.972;10.686;2022-10-31T02:51:25;38.72;;;20.95;;
45944;SDS011;31655;48.972;10.686;2022-10-31T02:53:51;47.97;;;21.42;;
45944;SDS011;31655;48.972;10.686;2022-10-31T02:56:18;44.28;;;21.40;;
45944;SDS011;31655;48.972;10.686;2022-10-31T02:59:02;34.78;;;19.60;;
45944;SDS011;31655;48.972;10.686;2022-10-31T03:09:59;38.78;;;20.65;;
45944;SDS011;31655;48.972;10.686;2022-10-31T03:12:37;106.47;;;53.75;;
45944;SDS011;31655;48.972;10.686;2022-10-31T03:15:13;108.25;;;52.60;;
45944;SDS011;31655;48.972;10.686;2022-10-31T03:20:30;371.27;;;146.93;;
45944;SDS011;31655;48.972;10.686;2022-10-31T03:23:02;242.80;;;96.80;;
45944;SDS011;31655;48.972;10.686;2022-10-31T03:25:31;71.25;;;34.10;;
45944;SDS011;31655;48.972;10.686;2022-10-31T03:28:01;49.97;;;23.88;;
45944;SDS011;31655;48.972;10.686;2022-10-31T03:30:27;61.25;;;28.42;;
45944;SDS011;31655;48.972;10.686;2022-10-31T03:32:55;79.15;;;36.70;;
45944;SDS011;31655;48.972;10.686;2022-10-31T03:35:23;71.95;;;32.42;;
45944;SDS011;31655;48.972;10.686;2022-10-31T03:37:52;64.05;;;24.75;;
45944;SDS011;31655;48.972;10.686;2022-10-31T03:40:20;47.53;;;24.38;;
45944;SDS011;31655;48.972;10.686;2022-10-31T03:42:53;57.50;;;28.90;;
45944;SDS011;31655;48.972;10.686;2022-10-31T03:45:26;54.42;;;27.80;;
45944;SDS011;31655;48.972;10.686;2022-10-31T03:47:56;56.55;;;26.35;;
45944;SDS011;31655;48.972;10.686;2022-10-31T03:50:24;57.50;;;27.48;;
45944;SDS011;31655;48.972;10.686;2022-10-31T03:53:05;57.35;;;26.70;;
45944;SDS011;31655;48.972;10.686;2022-10-31T03:58:25;37.70;;;20.67;;
45944;SDS011;31655;48.972;10.686;2022-10-31T04:00:53;45.20;;;21.35;;
45944;SDS011;31655;48.972;10.686;2022-10-31T04:03:22;45.17;;;22.33;;
45944;SDS011;31655;48.972;10.686;2022-10-31T04:05:51;45.92;;;20.40;;
45944;SDS011;31655;48.972;10.686;2022-10-31T04:08:21;37.05;;;20.73;;
45944;SDS011;31655;48.972;10.686;2022-10-31T04:10:51;42.38;;;21.83;;
45944;SDS011;31655;48.972;10.686;2022-10-31T04:13:24;53.35;;;24.27;;
45944;SDS011;31655;48.972;10.686;2022-10-31T04:15:53;48.58;;;23.55;;
45944;SDS011;31655;48.972;10.686;2022-10-31T04:18:22;44.63;;;23.60;;
45944;SDS011;31655;48.972;10.686;2022-10-31T04:20:48;45.13;;;22.35;;
45944;SDS011;31655;48.972;10.686;2022-10-31T04:23:24;46.80;;;22.70;;
45944;SDS011;31655;48.972;10.686;2022-10-31T04:25:52;43.47;;;21.58;;
45944;SDS011;31655;48.972;10.686;2022-10-31T04:28:18;38.63;;;22.08;;
45944;SDS011;31655;48.972;10.686;2022-10-31T04:30:44;37.55;;;20.40;;
45944;SDS011;31655;48.972;10.686;2022-10-31T04:33:09;39.78;;;20.42;;
45944;SDS011;31655;48.972;10.686;2022-10-31T04:35:36;44.65;;;21.02;;
45944;SDS011;31655;48.972;10.686;2022-10-31T04:38:02;41.10;;;21.05;;
45944;SDS011;31655;48.972;10.686;2022-10-31T04:40:27;48.72;;;22.98;;
45944;SDS011;31655;48.972;10.686;2022-10-31T04:42:53;39.20;;;21.80;;
45944;SDS011;31655;48.972;10.686;2022-10-31T04:45:19;40.13;;;21.65;;
45944;SDS011;31655;48.972;10.686;2022-10-31T04:47:45;42.42;;;21.35;;
45944;SDS011;31655;48.972;10.686;2022-10-31T04:50:11;46.30;;;22.73;;
45944;SDS011;31655;48.972;10.686;2022-10-31T04:52:40;45.22;;;22.67;;
45944;SDS011;31655;48.972;10.686;2022-10-31T04:55:07;44.65;;;23.05;;
45944;SDS011;31655;48.972;10.686;2022-10-31T04:57:39;47.15;;;23.38;;
45944;SDS011;31655;48.972;10.686;2022-10-31T05:00:06;52.50;;;23.98;;
45944;SDS011;31655;48.972;10.686;2022-10-31T05:02:33;51.28;;;25.92;;
45944;SDS011;31655;48.972;10.686;2022-10-31T05:04:58;45.70;;;22.98;;
45944;SDS011;31655;48.972;10.686;2022-10-31T05:07:24;47.13;;;25.48;;
45944;SDS011;31655;48.972;10.686;2022-10-31T05:09:50;39.00;;;22.48;;
45944;SDS011;31655;48.972;10.686;2022-10-31T05:12:16;44.20;;;22.02;;
45944;SDS011;31655;48.972;10.686;2022-10-31T05:14:41;35.05;;;19.90;;
45944;SDS011;31655;48.972;10.686;2022-10-31T05:17:07;35.55;;;18.85;;
45944;SDS011;31655;48.972;10.686;2022-10-31T05:19:32;30.30;;;16.58;;
45944;SDS011;31655;48.972;10.686;2022-10-31T05:21:58;31.13;;;16.45;;
45944;SDS011;31655;48.972;10.686;2022-10-31T05:24:24;51.20;;;20.83;;
45944;SDS011;31655;48.972;10.686;2022-10-31T05:26:49;38.35;;;19.70;;
45944;SDS011;31655;48.972;10.686;2022-10-31T05:29:15;39.13;;;17.90;;
45944;SDS011;31655;48.972;10.686;2022-10-31T05:31:40;31.48;;;17.17;;
45944;SDS011;31655;48.972;10.686;2022-10-31T05:34:06;33.50;;;16.63;;
45944;SDS011;31655;48.972;10.686;2022-10-31T05:36:32;40.90;;;18.83;;
45944;SDS011;31655;48.972;10.686;2022-10-31T05:38:58;39.78;;;18.67;;
45944;SDS011;31655;48.972;10.686;2022-10-31T05:41:24;41.90;;;19.00;;
45944;SDS011;31655;48.972;10.686;2022-10-31T05:43:49;35.25;;;17.05;;
45944;SDS011;31655;48.972;10.686;2022-10-31T05:46:15;36.33;;;19.45;;
45944;SDS011;31655;48.972;10.686;2022-10-31T05:48:40;38.00;;;17.90;;
45944;SDS011;31655;48.972;10.686;2022-10-31T05:51:06;39.10;;;19.67;;
45944;SDS011;31655;48.972;10.686;2022-10-31T05:53:31;37.42;;;19.67;;
45944;SDS011;31655;48.972;10.686;2022-10-31T05:55:57;42.22;;;19.67;;
45944;SDS011;31655;48.972;10.686;2022-10-31T05:58:22;31.77;;;17.50;;
45944;SDS011;31655;48.972;10.686;2022-10-31T06:00:48;41.67;;;20.27;;
45944;SDS011;31655;48.972;10.686;2022-10-31T06:03:14;33.13;;;18.77;;
45944;SDS011;31655;48.972;10.686;2022-10-31T06:05:40;37.03;;;20.08;;
45944;SDS011;31655;48.972;10.686;2022-10-31T06:08:05;39.42;;;21.08;;
45944;SDS011;31655;48.972;10.686;2022-10-31T06:10:31;35.78;;;19.92;;
45944;SDS011;31655;48.972;10.686;2022-10-31T06:12:56;37.00;;;19.40;;
45944;SDS011;31655;48.972;10.686;2022-10-31T06:15:22;38.78;;;19.42;;
45944;SDS011;31655;48.972;10.686;2022-10-31T06:17:56;40.83;;;20.63;;
45944;SDS011;31655;48.972;10.686;2022-10-31T06:20:26;41.08;;;20.08;;
45944;SDS011;31655;48.972;10.686;2022-10-31T06:22:52;39.75;;;20.30;;
45944;SDS011;31655;48.972;10.686;2022-10-31T06:25:17;43.72;;;21.67;;
45944;SDS011;31655;48.972;10.686;2022-10-31T06:27:43;38.45;;;21.45;;
45944;SDS011;31655;48.972;10.686;2022-10-31T06:30:09;45.50;;;21.58;;
45944;SDS011;31655;48.972;10.686;2022-10-31T06:32:35;44.65;;;21.75;;
45944;SDS011;31655;48.972;10.686;2022-10-31T06:35:00;44.83;;;22.30;;
45944;SDS011;31655;48.972;10.686;2022-10-31T06:37:26;45.97;;;22.05;;
45944;SDS011;31655;48.972;10.686;2022-10-31T06:39:53;47.80;;;23.95;;
45944;SDS011;31655;48.972;10.686;2022-10-31T06:42:19;45.67;;;23.35;;
45944;SDS011;31655;48.972;10.686;2022-10-31T06:44:44;51.05;;;25.98;;
45944;SDS011;31655;48.972;10.686;2022-10-31T06:47:10;38.95;;;18.42;;
45944;SDS011;31655;48.972;10.686;2022-10-31T06:49:35;34.08;;;16.60;;
45944;SDS011;31655;48.972;10.686;2022-10-31T06:52:01;31.08;;;15.75;;
45944;SDS011;31655;48.972;10.686;2022-10-31T06:54:27;30.27;;;16.13;;
45944;SDS011;31655;48.972;10.686;2022-10-31T06:56:52;27.98;;;15.50;;
45944;SDS011;31655;48.972;10.686;2022-10-31T06:59:18;30.60;;;14.55;;
45944;SDS011;31655;48.972;10.686;2022-10-31T07:01:44;28.73;;;14.63;;
45944;SDS011;31655;48.972;10.686;2022-10-31T07:04:10;25.20;;;13.35;;
45944;SDS011;31655;48.972;10.686;2022-10-31T07:06:36;23.55;;;12.23;;
45944;SDS011;31655;48.972;10.686;2022-10-31T07:09:01;21.75;;;13.27;;
45944;SDS011;31655;48.972;10.686;2022-10-31T07:11:27;31.85;;;15.32;;
45944;SDS011;31655;48.972;10.686;2022-10-31T07:13:52;35.75;;;19.83;;
45944;SDS011;31655;48.972;10.686;2022-10-31T07:16:18;37.30;;;19.90;;
45944;SDS011;31655;48.972;10.686;2022-10-31T07:18:44;32.03;;;18.80;;
45944;SDS011;31655;48.972;10.686;2022-10-31T07:21:09;34.00;;;17.08;;
45944;SDS011;31655;48.972;10.686;2022-10-31T07:23:35;30.80;;;14.05;;
45944;SDS011;31655;48.972;10.686;2022-10-31T07:26:00;28.33;;;14.93;;
45944;SDS011;31655;48.972;10.686;2022-10-31T07:28:26;24.55;;;14.73;;
45944;SDS011;31655;48.972;10.686;2022-10-31T07:30:53;27.40;;;13.07;;
45944;SDS011;31655;48.972;10.686;2022-10-31T07:33:19;22.95;;;12.90;;
45944;SDS011;31655;48.972;10.686;2022-10-31T07:35:46;21.27;;;11.55;;
45944;SDS011;31655;48.972;10.686;2022-10-31T07:38:12;15.10;;;10.55;;
45944;SDS011;31655;48.972;10.686;2022-10-31T07:40:39;20.42;;;8.52;;
45944;SDS011;31655;48.972;10.686;2022-10-31T07:43:07;13.90;;;6.93;;
45944;SDS011;31655;48.972;10.686;2022-10-31T07:45:33;14.30;;;7.00;;
45944;SDS011;31655;48.972;10.686;2022-10-31T07:47:59;16.55;;;6.75;;
45944;SDS011;31655;48.972;10.686;2022-10-31T07:50:26;11.20;;;5.95;;
45944;SDS011;31655;48.972;10.686;2022-10-31T07:53:03;10.18;;;5.75;;
45944;SDS011;31655;48.972;10.686;2022-10-31T07:55:31;12.43;;;5.90;;
45944;SDS011;31655;48.972;10.686;2022-10-31T08:00:23;14.65;;;5.13;;
45944;SDS011;31655;48.972;10.686;2022-10-31T08:03:24;11.13;;;5.13;;
45944;SDS011;31655;48.972;10.686;2022-10-31T08:05:45;9.65;;;5.07;;
45944;SDS011;31655;48.972;10.686;2022-10-31T08:08:11;14.45;;;5.55;;
45944;SDS011;31655;48.972;10.686;2022-10-31T08:10:37;8.75;;;4.78;;
45944;SDS011;31655;48.972;10.686;2022-10-31T08:15:30;6.68;;;4.20;;
45944;SDS011;31655;48.972;10.686;2022-10-31T08:17:56;14.40;;;5.75;;
45944;SDS011;31655;48.972;10.686;2022-10-31T08:20:22;14.85;;;5.43;;
45944;SDS011;31655;48.972;10.686;2022-10-31T08:23:01;11.50;;;6.15;;
45944;SDS011;31655;48.972;10.686;2022-10-31T08:25:29;11.27;;;5.40;;
45944;SDS011;31655;48.972;10.686;2022-10-31T08:27:56;9.77;;;5.07;;
45944;SDS011;31655;48.972;10.686;2022-10-31T08:30:22;13.05;;;5.90;;
45944;SDS011;31655;48.972;10.686;2022-10-31T08:32:59;11.80;;;4.93;;
45944;SDS011;31655;48.972;10.686;2022-10-31T08:35:25;8.45;;;5.47;;
45944;SDS011;31655;48.972;10.686;2022-10-31T08:37:55;20.33;;;5.72;;
45944;SDS011;31655;48.972;10.686;2022-10-31T08:40:22;9.10;;;5.30;;
45944;SDS011;31655;48.972;10.686;2022-10-31T08:43:03;15.82;;;5.40;;
45944;SDS011;31655;48.972;10.686;2022-10-31T08:45:49;14.18;;;6.75;;
45944;SDS011;31655;48.972;10.686;2022-10-31T08:48:16;10.43;;;5.75;;
45944;SDS011;31655;48.972;10.686;2022-10-31T08:50:44;8.52;;;5.18;;
45944;SDS011;31655;48.972;10.686;2022-10-31T08:53:14;8.38;;;5.40;;
45944;SDS011;31655;48.972;10.686;2022-10-31T08:55:45;9.23;;;5.43;;
45944;SDS011;31655;48.972;10.686;2022-10-31T08:58:13;8.48;;;6.30;;
45944;SDS011;31655;48.972;10.686;2022-10-31T09:00:43;9.40;;;5.55;;
45944;SDS011;31655;48.972;10.686;2022-10-31T09:03:20;10.25;;;4.97;;
45944;SDS011;31655;48.972;10.686;2022-10-31T09:05:50;10.75;;;5.00;;
45944;SDS011;31655;48.972;10.686;2022-10-31T09:08:19;10.27;;;5.18;;
45944;SDS011;31655;48.972;10.686;2022-10-31T09:10:45;13.02;;;4.97;;
45944;SDS011;31655;48.972;10.686;2022-10-31T09:13:12;6.57;;;4.25;;
45944;SDS011;31655;48.972;10.686;2022-10-31T09:15:42;11.25;;;4.80;;
45944;SDS011;31655;48.972;10.686;2022-10-31T09:18:09;8.65;;;5.15;;
45944;SDS011;31655;48.972;10.686;2022-10-31T09:20:36;8.15;;;4.57;;
45944;SDS011;31655;48.972;10.686;2022-10-31T09:23:06;5.60;;;3.92;;
45944;SDS011;31655;48.972;10.686;2022-10-31T09:25:34;9.70;;;4.68;;
45944;SDS011;31655;48.972;10.686;2022-10-31T09:28:01;8.63;;;5.47;;
45944;SDS011;31655;48.972;10.686;2022-10-31T09:30:28;11.73;;;6.55;;
45944;SDS011;31655;48.972;10.686;2022-10-31T09:32:57;7.85;;;4.82;;
45944;SDS011;31655;48.972;10.686;2022-10-31T09:35:24;7.20;;;4.88;;
45944;SDS011;31655;48.972;10.686;2022-10-31T09:37:57;8.00;;;5.43;;
45944;SDS011;31655;48.972;10.686;2022-10-31T09:40:27;11.43;;;5.75;;
45944;SDS011;31655;48.972;10.686;2022-10-31T09:51:40;6.97;;;5.45;;
45944;SDS011;31655;48.972;10.686;2022-10-31T09:54:10;11.48;;;6.20;;
45944;SDS011;31655;48.972;10.686;2022-10-31T09:56:42;10.93;;;5.60;;
45944;SDS011;31655;48.972;10.686;2022-10-31T09:59:17;12.43;;;5.90;;
45944;SDS011;31655;48.972;10.686;2022-10-31T10:01:56;12.10;;;6.38;;
45944;SDS011;31655;48.972;10.686;2022-10-31T10:04:34;11.93;;;5.72;;
45944;SDS011;31655;48.972;10.686;2022-10-31T10:09:47;8.52;;;5.10;;
45944;SDS011;31655;48.972;10.686;2022-10-31T10:23:21;9.77;;;5.10;;
45944;SDS011;31655;48.972;10.686;2022-10-31T10:26:05;7.97;;;5.32;;
45944;SDS011;31655;48.972;10.686;2022-10-31T10:28:36;5.22;;;4.68;;
45944;SDS011;31655;48.972;10.686;2022-10-31T10:31:11;8.07;;;4.78;;
45944;SDS011;31655;48.972;10.686;2022-10-31T10:36:38;5.40;;;4.03;;
45944;SDS011;31655;48.972;10.686;2022-10-31T10:44:10;6.45;;;4.68;;
45944;SDS011;31655;48.972;10.686;2022-10-31T10:46:48;8.07;;;4.65;;
45944;SDS011;31655;48.972;10.686;2022-10-31T10:49:44;19.38;;;4.68;;
45944;SDS011;31655;48.972;10.686;2022-10-31T10:58:09;6.30;;;4.72;;
45944;SDS011;31655;48.972;10.686;2022-10-31T11:00:43;8.45;;;5.38;;
45944;SDS011;31655;48.972;10.686;2022-10-31T11:03:15;5.50;;;4.35;;
45944;SDS011;31655;48.972;10.686;2022-10-31T11:05:52;11.00;;;5.07;;
45944;SDS011;31655;48.972;10.686;2022-10-31T11:08:39;9.68;;;5.72;;
45944;SDS011;31655;48.972;10.686;2022-10-31T11:13:48;8.18;;;5.53;;
45944;SDS011;31655;48.972;10.686;2022-10-31T11:16:37;8.77;;;5.55;;
45944;SDS011;31655;48.972;10.686;2022-10-31T11:21:37;8.55;;;6.03;;
45944;SDS011;31655;48.972;10.686;2022-10-31T11:26:35;9.20;;;6.00;;
45944;SDS011;31655;48.972;10.686;2022-10-31T11:29:12;10.27;;;5.75;;
45944;SDS011;31655;48.972;10.686;2022-10-31T11:31:52;10.40;;;6.30;;
45944;SDS011;31655;48.972;10.686;2022-10-31T11:34:30;11.13;;;6.72;;
45944;SDS011;31655;48.972;10.686;2022-10-31T11:37:04;12.85;;;7.03;;
45944;SDS011;31655;48.972;10.686;2022-10-31T11:39:41;10.57;;;6.55;;
45944;SDS011;31655;48.972;10.686;2022-10-31T11:42:18;10.15;;;6.70;;
45944;SDS011;31655;48.972;10.686;2022-10-31T11:44:48;11.68;;;6.90;;
45944;SDS011;31655;48.972;10.686;2022-10-31T11:47:16;11.93;;;6.05;;
45944;SDS011;31655;48.972;10.686;2022-10-31T11:49:45;9.95;;;6.00;;
45944;SDS011;31655;48.972;10.686;2022-10-31T11:52:25;10.10;;;6.85;;
45944;SDS011;31655;48.972;10.686;2022-10-31T11:57:50;12.75;;;5.82;;
45944;SDS011;31655;48.972;10.686;2022-10-31T12:00:27;10.70;;;7.50;;
45944;SDS011;31655;48.972;10.686;2022-10-31T12:03:15;12.90;;;7.60;;
45944;SDS011;31655;48.972;10.686;2022-10-31T12:06:03;9.98;;;7.22;;
45944;SDS011;31655;48.972;10.686;2022-10-31T12:08:35;10.52;;;7.25;;
45944;SDS011;31655;48.972;10.686;2022-10-31T12:18:57;13.40;;;7.70;;
45944;SDS011;31655;48.972;10.686;2022-10-31T12:30:06;11.48;;;8.30;;
45944;SDS011;31655;48.972;10.686;2022-10-31T12:37:35;12.88;;;8.23;;
45944;SDS011;31655;48.972;10.686;2022-10-31T12:40:34;10.77;;;8.20;;
45944;SDS011;31655;48.972;10.686;2022-10-31T12:51:02;14.10;;;6.82;;
45944;SDS011;31655;48.972;10.686;2022-10-31T13:02:02;13.93;;;7.25;;
45944;SDS011;31655;48.972;10.686;2022-10-31T13:04:42;13.43;;;6.75;;
45944;SDS011;31655;48.972;10.686;2022-10-31T13:07:29;11.13;;;5.50;;
45944;SDS011;31655;48.972;10.686;2022-10-31T13:10:01;10.38;;;5.80;;
45944;SDS011;31655;48.972;10.686;2022-10-31T13:12:42;13.70;;;5.35;;
45944;SDS011;31655;48.972;10.686;2022-10-31T13:15:16;10.63;;;5.18;;
45944;SDS011;31655;48.972;10.686;2022-10-31T13:17:49;11.65;;;5.05;;
45944;SDS011;31655;48.972;10.686;2022-10-31T13:22:48;14.93;;;5.93;;
45944;SDS011;31655;48.972;10.686;2022-10-31T13:25:19;11.90;;;4.90;;
45944;SDS011;31655;48.972;10.686;2022-10-31T13:27:53;12.20;;;5.25;;
45944;SDS011;31655;48.972;10.686;2022-10-31T13:30:20;12.50;;;4.43;;
45944;SDS011;31655;48.972;10.686;2022-10-31T13:38:27;14.80;;;8.70;;
45944;SDS011;31655;48.972;10.686;2022-10-31T13:41:00;15.90;;;7.35;;
45944;SDS011;31655;48.972;10.686;2022-10-31T13:46:24;13.68;;;7.70;;
45944;SDS011;31655;48.972;10.686;2022-10-31T13:51:50;22.30;;;8.90;;
45944;SDS011;31655;48.972;10.686;2022-10-31T13:54:20;16.90;;;9.43;;
45944;SDS011;31655;48.972;10.686;2022-10-31T13:56:49;19.13;;;9.77;;
45944;SDS011;31655;48.972;10.686;2022-10-31T13:59:20;22.52;;;9.98;;
45944;SDS011;31655;48.972;10.686;2022-10-31T14:01:49;19.02;;;10.50;;
45944;SDS011;31655;48.972;10.686;2022-10-31T14:04:26;16.23;;;11.80;;
45944;SDS011;31655;48.972;10.686;2022-10-31T14:07:04;16.48;;;10.45;;
45944;SDS011;31655;48.972;10.686;2022-10-31T14:09:35;19.80;;;10.40;;
45944;SDS011;31655;48.972;10.686;2022-10-31T14:12:31;21.25;;;10.30;;
45944;SDS011;31655;48.972;10.686;2022-10-31T14:15:11;14.20;;;8.90;;
45944;SDS011;31655;48.972;10.686;2022-10-31T14:25:37;18.70;;;8.77;;
45944;SDS011;31655;48.972;10.686;2022-10-31T14:28:20;18.98;;;10.23;;
45944;SDS011;31655;48.972;10.686;2022-10-31T14:30:57;16.40;;;9.88;;
45944;SDS011;31655;48.972;10.686;2022-10-31T14:33:30;27.70;;;11.73;;
45944;SDS011;31655;48.972;10.686;2022-10-31T14:36:04;17.60;;;10.35;;
45944;SDS011;31655;48.972;10.686;2022-10-31T14:38:41;25.08;;;11.48;;
45944;SDS011;31655;48.972;10.686;2022-10-31T14:52:01;21.83;;;11.10;;
45944;SDS011;31655;48.972;10.686;2022-10-31T14:54:32;21.58;;;11.50;;
45944;SDS011;31655;48.972;10.686;2022-10-31T14:59:50;23.42;;;13.60;;
45944;SDS011;31655;48.972;10.686;2022-10-31T15:04:47;20.23;;;13.68;;
45944;SDS011;31655;48.972;10.686;2022-10-31T15:07:31;28.55;;;14.70;;
45944;SDS011;31655;48.972;10.686;2022-10-31T15:10:03;24.13;;;14.82;;
45944;SDS011;31655;48.972;10.686;2022-10-31T15:15:43;27.92;;;14.20;;
45944;SDS011;31655;48.972;10.686;2022-10-31T15:18:03;23.77;;;13.45;;
45944;SDS011;31655;48.972;10.686;2022-10-31T15:20:33;24.27;;;14.20;;
45944;SDS011;31655;48.972;10.686;2022-10-31T15:23:09;20.40;;;12.40;;
45944;SDS011;31655;48.972;10.686;2022-10-31T15:25:39;21.52;;;12.55;;
45944;SDS011;31655;48.972;10.686;2022-10-31T15:28:15;23.85;;;13.73;;
45944;SDS011;31655;48.972;10.686;2022-10-31T15:30:50;25.50;;;13.82;;
45944;SDS011;31655;48.972;10.686;2022-10-31T15:33:28;28.90;;;13.10;;
45944;SDS011;31655;48.972;10.686;2022-10-31T15:35:59;27.10;;;14.77;;
45944;SDS011;31655;48.972;10.686;2022-10-31T15:38:27;24.35;;;13.50;;
45944;SDS011;31655;48.972;10.686;2022-10-31T15:40:55;21.50;;;11.43;;
45944;SDS011;31655;48.972;10.686;2022-10-31T15:43:21;31.40;;;14.82;;
45944;SDS011;31655;48.972;10.686;2022-10-31T15:45:47;29.52;;;13.43;;
45944;SDS011;31655;48.972;10.686;2022-10-31T15:48:21;21.52;;;12.63;;
45944;SDS011;31655;48.972;10.686;2022-10-31T15:50:57;31.80;;;16.23;;
45944;SDS011;31655;48.972;10.686;2022-10-31T15:55:55;28.05;;;15.30;;
45944;SDS011;31655;48.972;10.686;2022-10-31T15:58:26;31.60;;;17.30;;
45944;SDS011;31655;48.972;10.686;2022-10-31T16:01:00;26.35;;;15.20;;
45944;SDS011;31655;48.972;10.686;2022-10-31T16:03:31;28.10;;;15.20;;
45944;SDS011;31655;48.972;10.686;2022-10-31T16:05:59;25.83;;;15.30;;
45944;SDS011;31655;48.972;10.686;2022-10-31T16:10:51;27.92;;;14.55;;
45944;SDS011;31655;48.972;10.686;2022-10-31T16:13:18;27.27;;;13.70;;
45944;SDS011;31655;48.972;10.686;2022-10-31T16:15:51;30.00;;;15.55;;
45944;SDS011;31655;48.972;10.686;2022-10-31T16:18:20;28.23;;;15.15;;
45944;SDS011;31655;48.972;10.686;2022-10-31T16:20:49;23.73;;;15.60;;
45944;SDS011;31655;48.972;10.686;2022-10-31T16:23:17;29.05;;;16.13;;
45944;SDS011;31655;48.972;10.686;2022-10-31T16:25:45;38.75;;;18.10;;
45944;SDS011;31655;48.972;10.686;2022-10-31T16:28:21;43.70;;;17.98;;
45944;SDS011;31655;48.972;10.686;2022-10-31T16:30:50;33.20;;;16.70;;
45944;SDS011;31655;48.972;10.686;2022-10-31T16:33:28;37.47;;;19.80;;
45944;SDS011;31655;48.972;10.686;2022-10-31T16:36:00;35.58;;;21.20;;
45944;SDS011;31655;48.972;10.686;2022-10-31T16:38:46;32.50;;;18.20;;
45944;SDS011;31655;48.972;10.686;2022-10-31T16:41:12;28.67;;;17.13;;
45944;SDS011;31655;48.972;10.686;2022-10-31T16:43:37;32.97;;;18.75;;
45944;SDS011;31655;48.972;10.686;2022-10-31T16:46:03;32.40;;;18.15;;
45944;SDS011;31655;48.972;10.686;2022-10-31T16:48:29;36.13;;;18.27;;
45944;SDS011;31655;48.972;10.686;2022-10-31T16:50:54;44.25;;;19.50;;
45944;SDS011;31655;48.972;10.686;2022-10-31T16:53:20;41.97;;;20.77;;
45944;SDS011;31655;48.972;10.686;2022-10-31T16:55:48;39.13;;;19.60;;
45944;SDS011;31655;48.972;10.686;2022-10-31T16:58:30;43.85;;;21.48;;
45944;SDS011;31655;48.972;10.686;2022-10-31T17:01:01;43.60;;;20.98;;
45944;SDS011;31655;48.972;10.686;2022-10-31T17:03:29;40.75;;;21.42;;
45944;SDS011;31655;48.972;10.686;2022-10-31T17:05:55;41.50;;;22.75;;
45944;SDS011;31655;48.972;10.686;2022-10-31T17:08:21;40.40;;;20.95;;
45944;SDS011;31655;48.972;10.686;2022-10-31T17:10:50;46.75;;;23.42;;
45944;SDS011;31655;48.972;10.686;2022-10-31T17:13:18;44.92;;;22.98;;
45944;SDS011;31655;48.972;10.686;2022-10-31T17:15:47;45.13;;;23.13;;
45944;SDS011;31655;48.972;10.686;2022-10-31T17:18:16;37.85;;;20.85;;